Nearby METAR Reports

 

KSJC - San Jose, California, USA
Distance from station: NE 9mi, 14km
Updated: Wed, 19-Jun-2019 3:53pm AKDT
Clear
Clear
 Wind from NNW
Wind: NNW 14 mph , 22 km/h
Temperature: 75°F , 24°C
Dew Point: 63°F , 17°C
Humidity: 65%
Barometer: 29.89 inHg , 1012.2 hPa
Clouds: Clear
Visibility: 10 miles , 16 km
2019/06/19 23:53 KSJC 192353Z 33012KT 10SM CLR 24/17 A2989 RMK AO2 SLP121 T02390167 10261 20222 58010
KNUQ - Moffett Nas/Mtn, California, USA
Distance from station: N 9mi, 14km
Updated: Wed, 19-Jun-2019 3:56pm AKDT
Clear
Clear
 Wind from NNW
Wind: NNW 13 mph , 20 km/h, Gust: 22 mph , 35 km/h
Temperature: 73°F , 23°C
Dew Point: 61°F , 16°C
Humidity: 65%
Barometer: 29.90 inHg , 1012.5 hPa
Clouds: Clear
Visibility: 10 miles , 16 km
2019/06/19 23:56 KNUQ 192356Z 33011G19KT 10SM CLR 23/16 A2990 RMK AO2 SLP128 T02280156 10250 20211 58010
 
KPAO - Palo Alto, California, USA
Distance from station: NNW 14mi, 23km
Updated: Wed, 19-Jun-2019 2:47pm AKDT
NOT Current
Clear
Clear
 Wind from NNW
Wind: NNW 15 mph , 24 km/h
Temperature: 72°F , 22°C
Dew Point: 61°F , 16°C
Humidity: 69%
Barometer: 29.92 inHg , 1013.2 hPa
Clouds: Clear
Visibility: 10 miles , 16 km
2019/06/19 22:47 KPAO 192247Z 34013KT 10SM SKC 22/16 A2992
KRHV - San Jose/Reid, California, USA
Distance from station: ENE 12mi, 19km
Updated: Wed, 19-Jun-2019 4:47pm AKDT
Clear
Clear
 Wind from NW
Wind: NW 9 mph , 15 km/h
Temperature: 77°F , 25°C
Dew Point: 61°F , 16°C
Humidity: 57%
Barometer: 29.88 inHg , 1011.9 hPa
Clouds: Clear
Visibility: 10 miles , 16 km
2019/06/20 00:47 KRHV 200047Z 32008KT 10SM SKC 25/16 A2988
 
KOAK - Oakland, California, USA
Distance from station: NNW 31mi, 50km
Updated: Wed, 19-Jun-2019 3:53pm AKDT
Few Clouds
Few Clouds
 Wind from WNW
Wind: WNW 18 mph , 30 km/h
Temperature: 66°F , 19°C
Dew Point: 55°F , 13°C
Humidity: 68%
Barometer: 29.92 inHg , 1013.2 hPa
Clouds: Few Clouds
Visibility: 10 miles , 16 km
Cloud details: Few Clouds 1000 ft
2019/06/19 23:53 KOAK 192353Z 30016KT 10SM FEW010 19/13 A2992 RMK AO2 SLP132 T01890133 10217 20189 58010
KSQL - San Carlos Airpo, California, USA
Distance from station: NW 21mi, 34km
Updated: Wed, 19-Jun-2019 4:47pm AKDT
Clear
Clear
 Wind from W
Wind: W 12 mph , 19 km/h
Temperature: 68°F , 20°C
Dew Point: 57°F , 14°C
Humidity: 69%
Barometer: 29.90 inHg , 1012.5 hPa
Clouds: Clear
Visibility: 10 miles , 16 km
2019/06/20 00:47 KSQL 200047Z 28010KT 10SM SKC 20/14 A2990
 
KSFO - San Francisco, California, USA
Distance from station: NW 30mi, 49km
Updated: Wed, 19-Jun-2019 3:56pm AKDT
Few Clouds
Few Clouds
 Wind from WNW
Wind: WNW 20 mph , 31 km/h
Temperature: 66°F , 19°C
Dew Point: 55°F , 13°C
Humidity: 68%
Barometer: 29.90 inHg , 1012.5 hPa
Clouds: Few Clouds
Visibility: 10 miles , 16 km
Cloud details: Few Clouds 500 ft
2019/06/19 23:56 KSFO 192356Z 30017KT 10SM FEW005 19/13 A2990 RMK AO2 SLP125 T01940133 10228 20194 56013
KE16 - San Martin, California, USA
Distance from station: ESE 27mi, 43km
Updated: Thu, 30-May-2019 11:30am AKDT
NOT Current

 Wind from SE
Wind: SE 6 mph , 9 km/h
Temperature: 64°F , 18°C
Dew Point: 52°F , 11°C
Humidity: 64%
Barometer: 29.96 inHg , 1014.6 hPa
2019/05/30 19:30 KE16 301930Z AUTO 13005KT 18/11 A2996 RMK AO2 PWINO PNO
 
KWVI - Watsonville, California, USA
Distance from station: SSE 27mi, 44km
Updated: Wed, 19-Jun-2019 4:18pm AKDT
Mostly cloudy
Mostly cloudy
 Wind from W
Wind: W 13 mph , 20 km/h, Gust: 18 mph , 30 km/h
Temperature: 64°F , 18°C
Dew Point: 55°F , 13°C
Humidity: 73%
Barometer: 29.95 inHg , 1014.2 hPa
Clouds: Mostly cloudy
Visibility: 10 miles , 16 km
Cloud details: Mostly cloudy 1000 ft
2019/06/20 00:18 KWVI 200018Z AUTO 27011G16KT 10SM BKN010 18/13 A2995 RMK AO2 T01780128 $
KHAF - Half Moon Bay, California, USA
Distance from station: WNW 31mi, 50km
Updated: Wed, 19-Jun-2019 4:40pm AKDT
Overcast
Overcast
 Wind from S
Wind: S 5 mph , 7 km/h
Temperature: 59°F , 15°C
Dew Point: 57°F , 14°C
Humidity: 94%
Barometer: 29.96 inHg , 1014.6 hPa
Clouds: Overcast
Visibility: 9 miles , 14 km
Cloud details: Overcast 600 ft
2019/06/20 00:40 KHAF 200040Z AUTO 19004KT 9SM OVC006 15/14 A2996 RMK AO2
 
KHWD - Hayward, California, USA
Distance from station: N 28mi, 44km
Updated: Wed, 19-Jun-2019 3:54pm AKDT
Clear
Clear
 Wind from WNW
Wind: WNW 14 mph , 22 km/h
Temperature: 70°F , 21°C
Dew Point: 57°F , 14°C
Humidity: 64%
Barometer: 29.91 inHg , 1012.9 hPa
Clouds: Clear
Visibility: 10 miles , 16 km
2019/06/19 23:54 KHWD 192354Z 30012KT 10SM CLR 21/14 A2991 RMK AO2 SLP137 T02060139 10233 20194 58009
KLVK - Livermore, California, USA
Distance from station: NNE 31mi, 51km
Updated: Wed, 19-Jun-2019 3:53pm AKDT
Clear
Clear
 Wind from W
Wind: W 16 mph , 26 km/h
Temperature: 82°F , 28°C
Heat Index: 82°F , 28°C
Dew Point: 57°F , 14°C
Humidity: 42%
Barometer: 29.86 inHg , 1011.2 hPa
Clouds: Clear
Visibility: 10 miles , 16 km
2019/06/19 23:53 KLVK 192353Z 28014KT 10SM CLR 28/14 A2986 RMK AO2 SLP107 T02780139 10300 20233 58012